(°F)
48°
47°
46°
45°
43°
41°
40°
(°F)
42°
42°
41°
40°
39°
37°
36°
NE
NNE
NNE
NNE
N
NW
NW
(mph)
4-10
3-9
3-7
2-5
2-3
1-2
1-1
(in)
0
0
0
0
0
0
0
(%)
12
16
20
16
12
8
6

Sun elevation

/ 13.7°
sun-icon
UV 3
06:32
20:20
Waxing crescent moon (70°)
10:05
01:52

METAR for Rothenburg (LSME)

Time Conditions Temperature/
Dewpoint
Wind Visibility Weather Clouds Pressure Change Raw
48.2°F / 33.8°F 360º variable 320º to 030º 3kt - Scattered Clouds 3500ft 1019 - LSME 181620Z AUTO 36003KT 320V030 9999NDV SCT035 BKN046 09/01 Q1019 RMK
48.2°F / 33.8°F 340º variable 320º to 030º 5kt - Broken Clouds 4700ft 1018 - LSME 181550Z AUTO 34005KT 320V030 9999NDV BKN047 OVC060 09/01 Q1018 RMK
48.2°F / 32°F 340º variable 300º to 010º 7kt - Few Clouds 4000ft 1018 - LSME 181520Z AUTO 34007KT 300V010 9999NDV FEW040 BKN059 BKN090 09/00 Q1018 RMK
48.2°F / 33.8°F 330º variable 300º to 360º 8kt - Few Clouds 3900ft 1018 - LSME 181450Z AUTO 33008KT 300V360 9999NDV FEW039 BKN058 BKN093 09/01 Q1018 RMK
50°F / 33.8°F 360º variable 300º to 030º 5kt - Few Clouds 4400ft 1018 - LSME 181420Z AUTO 36005KT 300V030 9999NDV FEW044 BKN056 10/01 Q1018 RMK
48.2°F / 35.6°F 10º variable 320º to 050º 4kt - Few Clouds 3400ft 1019 - LSME 181350Z AUTO 01004KT 320V050 9999NDV FEW034 SCT041 BKN055 09/02 Q1019 RMK
48.2°F / 35.6°F 30º variable 350º to 060º 4kt - Scattered Clouds 3300ft 1019 - LSME 181320Z AUTO 03004KT 350V060 9999NDV SCT033 BKN043 BKN053 09/02 Q1019 RMK
46.4°F / 33.8°F 10º variable 340º to 060º 5kt - Broken Clouds 3000ft 1019 - LSME 181250Z AUTO 01005KT 340V060 9999NDV BKN030 BKN044 08/01 Q1019 RMK
46.4°F / 35.6°F 30º variable 340º to 060º 4kt - Few Clouds 2900ft 1019 - LSME 181220Z AUTO 03004KT 340V060 9999NDV FEW029 BKN039 BKN048 08/02 Q1019 RMK
46.4°F / 35.6°F 330º variable 280º to 030º 6kt - Scattered Clouds 2800ft 1019 - LSME 181150Z AUTO 33006KT 280V030 9999NDV SCT028 BKN033 BKN046 08/02 Q1019 RMK
46.4°F / 33.8°F 320º variable 280º to 010º 4kt - Few Clouds 2700ft 1019 - LSME 181120Z AUTO 32004KT 280V010 9999NDV FEW027 BKN041 08/01 Q1019 RMK
46.4°F / 35.6°F variable 2kt - Few Clouds 2600ft 1019 - LSME 181050Z AUTO VRB02KT 9999NDV FEW026 SCT033 OVC038 08/02 Q1019 RMK
44.6°F / 33.8°F 340º variable 300º to 050º 3kt - Scattered Clouds 2200ft 1019 - LSME 181020Z AUTO 34003KT 300V050 9999NDV SCT022 BKN035 BKN040 07/01 Q1019 RMK
44.6°F / 35.6°F variable 1kt - Scattered Clouds 2100ft 1019 - LSME 180950Z AUTO VRB01KT 9999NDV SCT021 SCT028 07/02 Q1019 RMK
44.6°F / 37.4°F variable 1kt - Few Clouds 2300ft 1019 - LSME 180920Z AUTO VRB01KT 9999NDV FEW023 SCT036 BKN046 07/03 Q1019 RMK
42.8°F / 35.6°F variable 0kt - Few Clouds 1900ft 1019 - LSME 180850Z AUTO 00000KT 9999NDV FEW019 SCT022 OVC035 06/02 Q1019 RMK
41°F / 35.6°F variable 0kt Light Rain Broken Clouds 1900ft 1019 - LSME 180820Z AUTO 00000KT 9999NDV -RA BKN019 BKN022 BKN034 05/02 Q1019 RMK
41°F / 35.6°F variable 0kt Light Rain Broken Clouds 1800ft 1019 - LSME 180750Z AUTO 00000KT 9999NDV -RA BKN018 OVC027 05/02 Q1019 RMK
41°F / 35.6°F variable 0kt Light Showers Rain Few Clouds 2000ft 1019 - LSME 180720Z AUTO 00000KT 9999NDV -SHRA FEW020 BKN031 OVC038 05/02 Q1019 RMK
39.2°F / 33.8°F variable 0kt Light Showers Rain Few Clouds 2000ft 1019 - LSME 180650Z AUTO 00000KT 9999NDV -SHRA FEW020 BKN036 OVC041 04/01 Q1019 RMK
37.4°F / 33.8°F variable 0kt Light Showers Rain Scattered Clouds 4000ft 1019 - LSME 180620Z AUTO 00000KT 9999NDV -SHRA SCT040 BKN054 BKN070 03/01 Q1019 RMK
37.4°F / 33.8°F variable 0kt Light Showers Rain Few Clouds 3200ft 1019 - LSME 180550Z AUTO 00000KT 9999NDV -SHRA FEW032 BKN042 BKN060 03/01 Q1019 RMK
37.4°F / 32°F variable 0kt Light Rain Few Clouds 4600ft 1018 - LSME 180520Z AUTO 00000KT 9999NDV -RA FEW046 BKN077 03/00 Q1018 RMK
37.4°F / 32°F variable 0kt - Scattered Clouds 3700ft 1018 - LSME 180450Z AUTO 00000KT 9999NDV SCT037 BKN082 OVC094 03/00 Q1018 RMK

48.2°F / 33.8°F

[More]
Wind 360º variable 320º to 030º 3kt
Visibility
Weather -
Clouds Scattered Clouds 3500ft
Pressure 1019
Change -
Raw LSME 181620Z AUTO 36003KT 320V030 9999NDV SCT035 BKN046 09/01 Q1019 RMK

48.2°F / 33.8°F

[More]
Wind 340º variable 320º to 030º 5kt
Visibility
Weather -
Clouds Broken Clouds 4700ft
Pressure 1018
Change -
Raw LSME 181550Z AUTO 34005KT 320V030 9999NDV BKN047 OVC060 09/01 Q1018 RMK

48.2°F / 32°F

[More]
Wind 340º variable 300º to 010º 7kt
Visibility
Weather -
Clouds Few Clouds 4000ft
Pressure 1018
Change -
Raw LSME 181520Z AUTO 34007KT 300V010 9999NDV FEW040 BKN059 BKN090 09/00 Q1018 RMK

48.2°F / 33.8°F

[More]
Wind 330º variable 300º to 360º 8kt
Visibility
Weather -
Clouds Few Clouds 3900ft
Pressure 1018
Change -
Raw LSME 181450Z AUTO 33008KT 300V360 9999NDV FEW039 BKN058 BKN093 09/01 Q1018 RMK

50°F / 33.8°F

[More]
Wind 360º variable 300º to 030º 5kt
Visibility
Weather -
Clouds Few Clouds 4400ft
Pressure 1018
Change -
Raw LSME 181420Z AUTO 36005KT 300V030 9999NDV FEW044 BKN056 10/01 Q1018 RMK

48.2°F / 35.6°F

[More]
Wind 10º variable 320º to 050º 4kt
Visibility
Weather -
Clouds Few Clouds 3400ft
Pressure 1019
Change -
Raw LSME 181350Z AUTO 01004KT 320V050 9999NDV FEW034 SCT041 BKN055 09/02 Q1019 RMK

48.2°F / 35.6°F

[More]
Wind 30º variable 350º to 060º 4kt
Visibility
Weather -
Clouds Scattered Clouds 3300ft
Pressure 1019
Change -
Raw LSME 181320Z AUTO 03004KT 350V060 9999NDV SCT033 BKN043 BKN053 09/02 Q1019 RMK

46.4°F / 33.8°F

[More]
Wind 10º variable 340º to 060º 5kt
Visibility
Weather -
Clouds Broken Clouds 3000ft
Pressure 1019
Change -
Raw LSME 181250Z AUTO 01005KT 340V060 9999NDV BKN030 BKN044 08/01 Q1019 RMK

46.4°F / 35.6°F

[More]
Wind 30º variable 340º to 060º 4kt
Visibility
Weather -
Clouds Few Clouds 2900ft
Pressure 1019
Change -
Raw LSME 181220Z AUTO 03004KT 340V060 9999NDV FEW029 BKN039 BKN048 08/02 Q1019 RMK

46.4°F / 35.6°F

[More]
Wind 330º variable 280º to 030º 6kt
Visibility
Weather -
Clouds Scattered Clouds 2800ft
Pressure 1019
Change -
Raw LSME 181150Z AUTO 33006KT 280V030 9999NDV SCT028 BKN033 BKN046 08/02 Q1019 RMK

46.4°F / 33.8°F

[More]
Wind 320º variable 280º to 010º 4kt
Visibility
Weather -
Clouds Few Clouds 2700ft
Pressure 1019
Change -
Raw LSME 181120Z AUTO 32004KT 280V010 9999NDV FEW027 BKN041 08/01 Q1019 RMK

46.4°F / 35.6°F

[More]
Wind variable 2kt
Visibility
Weather -
Clouds Few Clouds 2600ft
Pressure 1019
Change -
Raw LSME 181050Z AUTO VRB02KT 9999NDV FEW026 SCT033 OVC038 08/02 Q1019 RMK

44.6°F / 33.8°F

[More]
Wind 340º variable 300º to 050º 3kt
Visibility
Weather -
Clouds Scattered Clouds 2200ft
Pressure 1019
Change -
Raw LSME 181020Z AUTO 34003KT 300V050 9999NDV SCT022 BKN035 BKN040 07/01 Q1019 RMK

44.6°F / 35.6°F

[More]
Wind variable 1kt
Visibility
Weather -
Clouds Scattered Clouds 2100ft
Pressure 1019
Change -
Raw LSME 180950Z AUTO VRB01KT 9999NDV SCT021 SCT028 07/02 Q1019 RMK

44.6°F / 37.4°F

[More]
Wind variable 1kt
Visibility
Weather -
Clouds Few Clouds 2300ft
Pressure 1019
Change -
Raw LSME 180920Z AUTO VRB01KT 9999NDV FEW023 SCT036 BKN046 07/03 Q1019 RMK

42.8°F / 35.6°F

[More]
Wind variable 0kt
Visibility
Weather -
Clouds Few Clouds 1900ft
Pressure 1019
Change -
Raw LSME 180850Z AUTO 00000KT 9999NDV FEW019 SCT022 OVC035 06/02 Q1019 RMK

41°F / 35.6°F

[More]
Wind variable 0kt
Visibility
Weather Light Rain
Clouds Broken Clouds 1900ft
Pressure 1019
Change -
Raw LSME 180820Z AUTO 00000KT 9999NDV -RA BKN019 BKN022 BKN034 05/02 Q1019 RMK

41°F / 35.6°F

[More]
Wind variable 0kt
Visibility
Weather Light Rain
Clouds Broken Clouds 1800ft
Pressure 1019
Change -
Raw LSME 180750Z AUTO 00000KT 9999NDV -RA BKN018 OVC027 05/02 Q1019 RMK

41°F / 35.6°F

[More]
Wind variable 0kt
Visibility
Weather Light Showers Rain
Clouds Few Clouds 2000ft
Pressure 1019
Change -
Raw LSME 180720Z AUTO 00000KT 9999NDV -SHRA FEW020 BKN031 OVC038 05/02 Q1019 RMK

39.2°F / 33.8°F

[More]
Wind variable 0kt
Visibility
Weather Light Showers Rain
Clouds Few Clouds 2000ft
Pressure 1019
Change -
Raw LSME 180650Z AUTO 00000KT 9999NDV -SHRA FEW020 BKN036 OVC041 04/01 Q1019 RMK

37.4°F / 33.8°F

[More]
Wind variable 0kt
Visibility
Weather Light Showers Rain
Clouds Scattered Clouds 4000ft
Pressure 1019
Change -
Raw LSME 180620Z AUTO 00000KT 9999NDV -SHRA SCT040 BKN054 BKN070 03/01 Q1019 RMK

37.4°F / 33.8°F

[More]
Wind variable 0kt
Visibility
Weather Light Showers Rain
Clouds Few Clouds 3200ft
Pressure 1019
Change -
Raw LSME 180550Z AUTO 00000KT 9999NDV -SHRA FEW032 BKN042 BKN060 03/01 Q1019 RMK

37.4°F / 32°F

[More]
Wind variable 0kt
Visibility
Weather Light Rain
Clouds Few Clouds 4600ft
Pressure 1018
Change -
Raw LSME 180520Z AUTO 00000KT 9999NDV -RA FEW046 BKN077 03/00 Q1018 RMK

37.4°F / 32°F

[More]
Wind variable 0kt
Visibility
Weather -
Clouds Scattered Clouds 3700ft
Pressure 1018
Change -
Raw LSME 180450Z AUTO 00000KT 9999NDV SCT037 BKN082 OVC094 03/00 Q1018 RMK

Current satellite and rain images for Rothenburg, Switzerland

  • Precipitation:
  • <1 mm
  • 1-2 mm
  • 2-5 mm
  • >5 mm

The location marker is placed on Rothenburg. [More]

The real-time satellite image combines visible light during daytime with infrared radiation during nighttime. At night, the image is not dark as infrared radiation can detect temperature differences. Unfortunately, low clouds and fog are difficult to distinguish from ground temperatures and thus can be almost invisible during the night. Meteosat satellite images for Europe are updated in real-time every 5 minutes. GOES-16/GOES-17 (North & South America) and Himawari (Asia) images update every 10 minutes.

Precipitation is estimated from radar and satellites. At night precipitation estimates from satellites are less accurate than during daytime. Orange crosses mark places where lightning was detected (over Europe).

Copyright 2021 EUMETSAT / meteoblue. Lightning data provided by nowcast.

Radar and precipitation nowcast for Rothenburg

The location marker is placed on Rothenburg. This animation shows the precipitation radar for the last hour, as well as a 1h forecast. Drizzle or light snow fall might be invisible for the radar. Precipitation intensity is colour coded, ranging from light blue to heavy purple.

Current weather situation and warnings

EUMETNET – MeteoAlarm

pictomap

Source: MeteoSwiss

Time delays between this website and the www.meteoalarm.eu website are possible, for the most up to date information about alert levels as published by the participating National Meteorological Services please use www.meteoalarm.eu.